createdAt,value
2023-04-27T00:04:37.774Z,5.40
2023-04-27T00:09:58.568Z,5.51
2023-04-27T00:15:19.362Z,5.45
2023-04-27T00:20:40.750Z,5.41
2023-04-27T00:26:01.829Z,5.50
2023-04-27T00:31:22.405Z,5.47
2023-04-27T00:36:43.435Z,5.46
2023-04-27T00:42:04.035Z,5.24
2023-04-27T00:47:25.097Z,5.36
2023-04-27T00:52:46.015Z,5.41
2023-04-27T00:58:06.642Z,5.23
2023-04-27T01:03:27.337Z,5.32
2023-04-27T01:08:48.271Z,5.27
2023-04-27T01:14:08.834Z,5.42
2023-04-27T01:19:29.594Z,5.52
2023-04-27T01:24:50.097Z,5.53
2023-04-27T01:30:11.114Z,5.57
2023-04-27T01:35:31.695Z,5.57
2023-04-27T01:41:01.949Z,5.61
2023-04-27T01:46:24.620Z,5.53
2023-04-27T01:51:45.228Z,5.22
2023-04-27T01:57:05.905Z,5.20
2023-04-27T02:02:27.769Z,5.26
2023-04-27T02:07:49.449Z,5.28
2023-04-27T02:13:10.029Z,5.20
2023-04-27T02:18:32.332Z,5.28
2023-04-27T02:23:52.869Z,5.51
2023-04-27T02:29:13.881Z,5.61
2023-04-27T02:34:35.981Z,5.68
2023-04-27T02:39:57.185Z,5.83
2023-04-27T02:45:17.953Z,5.78
2023-04-27T02:50:44.345Z,5.47
2023-04-27T02:56:05.245Z,5.19
2023-04-27T03:01:25.777Z,5.23
2023-04-27T03:06:46.256Z,5.38
2023-04-27T03:12:07.765Z,5.28
2023-04-27T03:17:28.818Z,5.36
2023-04-27T03:22:49.841Z,5.34
2023-04-27T03:28:12.755Z,5.50
2023-04-27T03:33:34.001Z,5.55
2023-04-27T03:38:55.038Z,5.52
2023-04-27T03:44:15.744Z,5.68
2023-04-27T03:49:36.497Z,5.70
2023-04-27T03:54:57.262Z,5.71
2023-04-27T04:00:18.712Z,5.66
2023-04-27T04:05:43.184Z,5.61
2023-04-27T04:11:04.010Z,5.73
2023-04-27T04:16:24.876Z,5.67
2023-04-27T04:21:46.901Z,5.62
2023-04-27T04:27:07.843Z,5.77
2023-04-27T04:32:29.868Z,5.75
2023-04-27T04:37:50.459Z,5.84
2023-04-27T04:43:11.116Z,5.90
2023-04-27T04:48:32.323Z,5.86
2023-04-27T04:53:52.906Z,5.97
2023-04-27T04:59:13.812Z,5.93
2023-04-27T05:04:34.356Z,6.01
2023-04-27T05:09:55.083Z,6.02
2023-04-27T05:15:15.964Z,6.19
2023-04-27T05:20:37.362Z,6.14
2023-04-27T05:25:57.905Z,6.23
2023-04-27T05:31:18.623Z,6.34
2023-04-27T05:36:39.404Z,6.38
2023-04-27T05:41:59.979Z,6.43
2023-04-27T05:47:21.147Z,6.48
2023-04-27T05:52:41.896Z,6.51
2023-04-27T05:58:08.464Z,6.59
2023-04-27T06:03:31.238Z,6.82
2023-04-27T06:08:52.753Z,7.23
2023-04-27T06:15:30.029Z,7.38
2023-04-27T06:20:50.415Z,7.24
2023-04-27T06:26:11.057Z,7.30
2023-04-27T06:31:31.731Z,7.40
2023-04-27T06:36:52.354Z,7.72
2023-04-27T06:42:12.994Z,7.88
2023-04-27T06:47:33.708Z,7.62
2023-04-27T06:52:54.155Z,7.56
2023-04-27T06:58:15.232Z,7.76
2023-04-27T07:03:36.585Z,7.82
2023-04-27T07:08:57.598Z,8.14
2023-04-27T07:14:17.902Z,8.27
2023-04-27T07:19:39.057Z,8.24
2023-04-27T07:25:00.276Z,8.20
2023-04-27T07:30:21.540Z,8.09
2023-04-27T07:35:42.367Z,8.59
2023-04-27T07:41:03.047Z,8.81
2023-04-27T07:46:23.763Z,8.28
2023-04-27T07:51:44.448Z,8.70
2023-04-27T07:57:10.198Z,9.07
2023-04-27T08:02:31.662Z,8.97
2023-04-27T08:07:54.190Z,8.75
2023-04-27T08:13:15.185Z,8.84
2023-04-27T08:18:36.039Z,9.06
2023-04-27T08:23:56.743Z,9.34
2023-04-27T08:29:27.187Z,9.60
2023-04-27T08:34:48.985Z,9.70
2023-04-27T08:40:10.879Z,9.76
2023-04-27T08:45:31.540Z,10.04
2023-04-27T08:50:53.867Z,10.29
2023-04-27T08:56:14.368Z,9.87
2023-04-27T09:01:35.134Z,10.18
2023-04-27T09:06:56.313Z,10.21
2023-04-27T09:12:18.898Z,10.12
2023-04-27T09:17:39.383Z,9.40
2023-04-27T09:23:00.292Z,9.47
2023-04-27T09:28:20.946Z,10.10
2023-04-27T09:33:41.358Z,10.00
2023-04-27T09:39:05.241Z,9.96
2023-04-27T09:44:28.239Z,10.58
2023-04-27T09:49:50.905Z,11.06
2023-04-27T09:55:16.577Z,11.36
2023-04-27T10:01:12.800Z,10.75
2023-04-27T10:06:52.061Z,10.73
2023-04-27T10:12:15.015Z,10.98
2023-04-27T10:17:36.750Z,10.71
2023-04-27T10:22:58.862Z,10.86
2023-04-27T10:28:21.213Z,10.97
2023-04-27T10:33:46.158Z,11.47
2023-04-27T10:39:17.752Z,11.31
2023-04-27T10:44:39.147Z,11.57
2023-04-27T10:50:00.262Z,10.97
2023-04-27T10:55:22.780Z,13.06
2023-04-27T11:00:44.518Z,15.22
2023-04-27T11:06:06.598Z,13.98
2023-04-27T11:11:27.229Z,22.99
2023-04-27T11:16:48.754Z,17.92
2023-04-27T11:22:09.437Z,16.68
2023-04-27T11:27:38.529Z,23.33
2023-04-27T11:32:59.368Z,25.27
2023-04-27T11:38:21.724Z,22.36
2023-04-27T11:43:49.236Z,26.50
2023-04-27T11:49:09.676Z,31.22
2023-04-27T11:54:30.375Z,33.20
2023-04-27T11:59:50.960Z,37.51
2023-04-27T12:05:13.176Z,34.61
2023-04-27T12:10:34.447Z,34.42
2023-04-27T12:15:54.851Z,31.26
2023-04-27T12:21:15.809Z,34.16
2023-04-27T12:26:36.678Z,35.10
2023-04-27T12:31:57.168Z,26.63
2023-04-27T12:37:17.842Z,30.01
2023-04-27T12:42:38.277Z,32.64
2023-04-27T12:48:03.869Z,31.67
2023-04-27T12:53:25.077Z,27.84
2023-04-27T12:58:46.264Z,22.42
2023-04-27T13:04:07.376Z,20.91
2023-04-27T13:09:28.088Z,20.56
2023-04-27T13:14:48.796Z,19.45
2023-04-27T13:20:10.080Z,19.17
2023-04-27T13:25:30.750Z,17.92
2023-04-27T13:30:52.019Z,17.41
2023-04-27T13:36:13.225Z,17.26
2023-04-27T13:41:34.906Z,18.69
2023-04-27T13:46:55.449Z,25.52
2023-04-27T13:52:16.144Z,30.54
2023-04-27T13:57:37.897Z,32.13
2023-04-27T14:02:58.476Z,32.17
2023-04-27T14:08:19.399Z,31.98
2023-04-27T14:13:40.388Z,33.52
2023-04-27T14:19:01.006Z,34.06
2023-04-27T14:24:21.678Z,33.03
2023-04-27T14:29:42.152Z,32.10
2023-04-27T14:35:03.518Z,32.11
2023-04-27T14:40:24.124Z,30.17
2023-04-27T14:45:51.538Z,28.71
2023-04-27T14:51:14.887Z,27.69
2023-04-27T14:56:36.641Z,24.68
2023-04-27T15:01:57.226Z,22.99
2023-04-27T15:07:20.063Z,22.69
2023-04-27T15:12:40.742Z,24.22
2023-04-27T15:18:01.996Z,24.29
2023-04-27T15:23:23.705Z,19.89
2023-04-27T15:28:44.239Z,16.60
2023-04-27T15:34:04.968Z,15.87
2023-04-27T15:39:25.336Z,16.84
2023-04-27T15:44:46.139Z,16.31
2023-04-27T15:50:06.816Z,16.53
2023-04-27T15:55:27.175Z,17.14
2023-04-27T16:00:47.732Z,16.34
2023-04-27T16:06:08.120Z,15.40
2023-04-27T16:11:28.423Z,15.18
2023-04-27T16:16:51.242Z,14.95
2023-04-27T16:22:12.234Z,15.16
2023-04-27T16:27:32.834Z,14.98
2023-04-27T16:32:53.310Z,14.51
2023-04-27T16:38:14.109Z,13.82
2023-04-27T16:43:34.721Z,13.25
2023-04-27T16:48:55.849Z,13.10
2023-04-27T16:54:16.638Z,13.02
2023-04-27T16:59:37.524Z,12.82
2023-04-27T17:04:59.536Z,12.38
2023-04-27T17:10:19.793Z,12.06
2023-04-27T17:15:40.337Z,12.29
2023-04-27T17:21:00.838Z,11.98
2023-04-27T17:26:21.681Z,11.65
2023-04-27T17:31:42.669Z,11.70
2023-04-27T17:37:03.421Z,11.68
2023-04-27T17:42:24.007Z,11.45
2023-04-27T17:47:44.523Z,11.13
2023-04-27T17:53:04.967Z,10.98
2023-04-27T17:58:25.589Z,11.00
2023-04-27T18:03:46.316Z,10.95
2023-04-27T18:09:06.700Z,10.76
2023-04-27T18:14:27.437Z,10.53
2023-04-27T18:19:57.941Z,10.45
2023-04-27T18:25:25.949Z,10.30
2023-04-27T18:30:46.547Z,10.11
2023-04-27T18:36:07.898Z,9.90
2023-04-27T18:41:28.238Z,9.67
2023-04-27T18:46:48.802Z,9.52
2023-04-27T18:52:11.447Z,9.39
2023-04-27T18:57:31.832Z,9.36
2023-04-27T19:02:52.645Z,9.35
2023-04-27T19:08:13.465Z,9.25
2023-04-27T19:13:34.069Z,9.13
2023-04-27T19:18:54.432Z,9.02
2023-04-27T19:24:14.952Z,8.96
2023-04-27T19:29:58.159Z,8.89
2023-04-27T19:35:20.177Z,8.83
2023-04-27T19:40:40.745Z,8.78
2023-04-27T19:46:01.921Z,8.74
2023-04-27T19:51:23.086Z,8.70
2023-04-27T19:56:43.339Z,8.65
2023-04-27T20:02:04.289Z,8.60
2023-04-27T20:07:24.997Z,8.54
2023-04-27T20:12:56.298Z,8.44
2023-04-27T20:18:17.688Z,8.42
2023-04-27T20:23:38.607Z,8.36
2023-04-27T20:28:59.227Z,8.30
2023-04-27T20:34:19.960Z,8.27
2023-04-27T20:39:40.290Z,8.14
2023-04-27T20:45:00.710Z,7.97
2023-04-27T20:50:21.080Z,7.94
2023-04-27T20:55:42.646Z,7.84
2023-04-27T21:01:03.313Z,7.79
2023-04-27T21:06:24.420Z,7.66
2023-04-27T21:11:45.129Z,7.55
2023-04-27T21:17:06.116Z,7.35
2023-04-27T21:22:27.842Z,7.22
2023-04-27T21:27:48.630Z,7.07
2023-04-27T21:33:09.418Z,6.86
2023-04-27T21:38:30.127Z,6.56
2023-04-27T21:43:51.177Z,6.57
2023-04-27T21:49:11.824Z,6.63
2023-04-27T21:54:32.469Z,6.61
2023-04-27T21:59:53.066Z,6.54
2023-04-27T22:05:14.314Z,6.46
2023-04-27T22:10:35.041Z,6.36
2023-04-27T22:15:56.049Z,5.93
2023-04-27T22:21:16.890Z,5.93
2023-04-27T22:26:37.515Z,5.98
2023-04-27T22:31:58.004Z,5.91
2023-04-27T22:37:18.389Z,5.83
2023-04-27T22:42:39.116Z,5.72
2023-04-27T22:47:59.858Z,5.58
2023-04-27T22:53:21.067Z,5.49
2023-04-27T22:58:41.628Z,5.51
2023-04-27T23:04:02.502Z,5.58
2023-04-27T23:09:22.696Z,5.60
2023-04-27T23:14:43.412Z,5.67
2023-04-27T23:20:24.186Z,5.69
2023-04-27T23:25:48.176Z,5.64
2023-04-27T23:31:09.037Z,5.64
2023-04-27T23:36:29.447Z,5.73
2023-04-27T23:41:50.050Z,5.84
2023-04-27T23:47:10.343Z,5.95
2023-04-27T23:52:30.724Z,6.00
2023-04-27T23:57:52.330Z,6.12
